Gridley, Kansas
Current Conditions -  °F | °C
As of 5:53 PM on Monday 24 Nov 2014 (Local Time) from KEMP Reporting Station
Clear Clear  
Wind Chill: 33°   Ceiling: Unl
Heat Index: 38°   Visibility: 10mi
Dew Point: 17°   Wind: 7mph
Humidity: 43%   Direction: 300°WNW
Pressure: 29.99"   Gusts: NA
Location:  38.1°N, 95.88°W
Report Text: KEMP 242353Z AUTO 30006KT 10SM CLR 03/M08 A2999 RMK AO2 SLP165 T00331083 10078 20033 51039
Loading
Personal Weather Stations






























Interactive Weather Map New forecast layout! Learn more

10-Day Weather Forecast

Advertisements
Track Severe Weather on mobile